createdAt,value
2018-06-10T00:01:06.136Z,86.60
2018-06-10T00:03:35.044Z,86.50
2018-06-10T00:06:03.995Z,86.50
2018-06-10T00:08:32.886Z,86.50
2018-06-10T00:11:01.546Z,87.40
2018-06-10T00:13:30.210Z,87.30
2018-06-10T00:15:58.898Z,88.20
2018-06-10T00:18:29.345Z,88.30
2018-06-10T00:20:59.700Z,88.40
2018-06-10T00:23:29.246Z,88.50
2018-06-10T00:25:58.125Z,88.80
2018-06-10T00:28:32.626Z,88.90
2018-06-10T00:31:01.526Z,87.40
2018-06-10T00:33:30.482Z,86.50
2018-06-10T00:35:59.384Z,86.50
2018-06-10T00:38:28.323Z,86.60
2018-06-10T00:40:57.229Z,87.20
2018-06-10T00:43:26.135Z,87.70
2018-06-10T00:45:55.048Z,88.40
2018-06-10T00:48:26.449Z,88.00
2018-06-10T00:50:55.370Z,88.20
2018-06-10T00:53:24.290Z,89.30
2018-06-10T00:55:53.222Z,90.50
2018-06-10T00:58:22.137Z,90.70
2018-06-10T01:00:51.055Z,91.00
2018-06-10T01:03:20.591Z,91.00
2018-06-10T01:05:49.512Z,91.10
2018-06-10T01:08:18.420Z,91.10
2018-06-10T01:10:47.382Z,91.00
2018-06-10T01:13:16.487Z,91.10
2018-06-10T01:15:45.417Z,91.10
2018-06-10T01:18:14.442Z,90.90
2018-06-10T01:20:43.136Z,90.70
2018-06-10T01:23:11.798Z,90.60
2018-06-10T01:25:40.430Z,90.50
2018-06-10T01:28:09.100Z,90.40
2018-06-10T01:30:37.707Z,90.20
2018-06-10T01:33:06.312Z,90.40
2018-06-10T01:35:34.980Z,90.40
2018-06-10T01:38:03.579Z,90.30
2018-06-10T01:40:32.187Z,90.30
2018-06-10T01:43:00.774Z,90.30
2018-06-10T01:45:29.375Z,90.60
2018-06-10T01:47:57.965Z,90.50
2018-06-10T01:50:26.563Z,90.40
2018-06-10T01:52:55.180Z,90.30
2018-06-10T01:55:23.812Z,90.30
2018-06-10T01:57:52.404Z,90.40
2018-06-10T02:00:21.168Z,90.20
2018-06-10T02:02:50.043Z,90.00
2018-06-10T02:05:18.922Z,89.90
2018-06-10T02:07:47.815Z,90.20
2018-06-10T02:10:16.770Z,90.50
2018-06-10T02:12:45.643Z,90.90
2018-06-10T02:15:14.575Z,90.80
2018-06-10T02:17:43.487Z,90.80
2018-06-10T02:20:12.442Z,91.20
2018-06-10T02:22:41.131Z,91.30
2018-06-10T02:25:09.818Z,91.30
2018-06-10T02:27:38.435Z,91.40
2018-06-10T02:30:07.113Z,92.50
2018-06-10T02:32:38.157Z,92.70
2018-06-10T02:35:06.896Z,92.50
2018-06-10T02:37:35.538Z,92.60
2018-06-10T02:40:04.289Z,92.60
2018-06-10T02:42:32.929Z,92.60
2018-06-10T02:45:01.543Z,92.60
2018-06-10T02:47:30.166Z,92.70
2018-06-10T02:49:58.768Z,93.10
2018-06-10T02:52:27.363Z,93.10
2018-06-10T02:54:56.224Z,93.10
2018-06-10T02:57:24.863Z,93.20
2018-06-10T02:59:53.464Z,93.30
2018-06-10T03:02:22.066Z,93.50
2018-06-10T03:04:50.711Z,93.40
2018-06-10T03:07:19.331Z,93.30
2018-06-10T03:09:47.951Z,93.30
2018-06-10T03:12:16.595Z,94.00
2018-06-10T03:14:45.211Z,93.40
2018-06-10T03:17:13.882Z,93.40
2018-06-10T03:19:42.538Z,93.50
2018-06-10T03:22:11.183Z,93.60
2018-06-10T03:24:39.863Z,93.30
2018-06-10T03:27:08.520Z,93.00
2018-06-10T03:29:37.184Z,93.20
2018-06-10T03:32:05.907Z,92.90
2018-06-10T03:34:34.516Z,92.70
2018-06-10T03:37:03.118Z,92.70
2018-06-10T03:39:31.831Z,92.50
2018-06-10T03:42:00.683Z,92.50
2018-06-10T03:44:29.539Z,92.70
2018-06-10T03:46:58.438Z,92.90
2018-06-10T03:49:27.228Z,92.90
2018-06-10T03:51:55.870Z,92.70
2018-06-10T03:54:24.606Z,92.60
2018-06-10T03:56:53.296Z,93.30
2018-06-10T03:59:21.981Z,92.80
2018-06-10T04:01:50.663Z,93.10
2018-06-10T04:04:19.335Z,93.20
2018-06-10T04:06:47.993Z,92.60
2018-06-10T04:09:16.743Z,91.70
2018-06-10T04:11:45.743Z,89.20
2018-06-10T04:14:14.677Z,87.60
2018-06-10T04:16:43.596Z,86.70
2018-06-10T04:19:12.571Z,86.80
2018-06-10T04:21:41.266Z,85.30
2018-06-10T04:24:10.019Z,86.80
2018-06-10T04:26:38.650Z,85.20
2018-06-10T04:29:07.323Z,85.10
2018-06-10T04:31:36.003Z,86.00
2018-06-10T04:34:04.740Z,85.70
2018-06-10T04:36:33.411Z,85.80
2018-06-10T04:39:02.147Z,84.80
2018-06-10T04:41:30.803Z,84.60
2018-06-10T04:43:59.485Z,84.50
2018-06-10T04:46:28.091Z,83.10
2018-06-10T04:48:56.886Z,81.80
2018-06-10T04:51:25.788Z,81.70
2018-06-10T04:53:54.678Z,80.80
2018-06-10T04:56:23.670Z,79.80
2018-06-10T04:58:52.546Z,79.80
2018-06-10T05:01:21.476Z,77.90
2018-06-10T05:03:50.415Z,76.00
2018-06-10T05:06:19.339Z,75.40
2018-06-10T05:08:48.240Z,76.60
2018-06-10T05:11:16.835Z,76.80
2018-06-10T05:13:45.512Z,75.30
2018-06-10T05:16:14.149Z,74.90
2018-06-10T05:18:42.885Z,73.80
2018-06-10T05:21:11.625Z,71.90
2018-06-10T05:26:08.665Z,71.40
2018-06-10T05:28:37.518Z,71.10
2018-06-10T05:31:06.489Z,72.30
2018-06-10T05:33:35.493Z,73.50
2018-06-10T05:36:04.401Z,74.30
2018-06-10T05:38:33.273Z,73.00
2018-06-10T05:41:01.931Z,73.60
2018-06-10T05:45:59.033Z,77.20
2018-06-10T05:48:27.695Z,76.20
2018-06-10T05:50:56.621Z,75.10
2018-06-10T05:53:25.586Z,74.10
2018-06-10T05:55:54.809Z,74.90
2018-06-10T05:58:23.526Z,73.60
2018-06-10T06:00:52.109Z,72.90
2018-06-10T06:03:20.941Z,70.80
2018-06-10T06:05:49.573Z,71.00
2018-06-10T06:08:18.323Z,70.00
2018-06-10T06:10:47.259Z,69.50
2018-06-10T06:13:16.186Z,69.30
2018-06-10T06:15:45.084Z,69.40
2018-06-10T06:18:13.933Z,67.90
2018-06-10T06:20:42.592Z,67.40
2018-06-10T06:23:11.221Z,68.30
2018-06-10T06:25:39.896Z,66.90
2018-06-10T06:28:08.551Z,67.30
2018-06-10T06:30:37.191Z,67.00
2018-06-10T06:33:05.776Z,64.90
2018-06-10T06:35:34.396Z,65.80
2018-06-10T06:38:03.023Z,63.30
2018-06-10T06:40:31.685Z,62.10
2018-06-10T06:43:00.355Z,61.40
2018-06-10T06:45:28.926Z,61.40
2018-06-10T06:47:57.593Z,61.70
2018-06-10T06:50:26.239Z,60.80
2018-06-10T06:52:55.011Z,60.30
2018-06-10T06:55:23.657Z,59.60
2018-06-10T06:57:52.386Z,59.70
2018-06-10T07:00:20.952Z,57.10
2018-06-10T07:02:50.340Z,59.30
2018-06-10T07:05:19.037Z,56.00
2018-06-10T07:07:47.784Z,56.00
2018-06-10T07:10:16.679Z,55.60
2018-06-10T07:12:45.578Z,56.70
2018-06-10T07:15:14.531Z,57.30
2018-06-10T07:17:43.465Z,56.90
2018-06-10T07:20:12.174Z,58.10
2018-06-10T07:22:40.831Z,56.40
2018-06-10T07:25:09.491Z,57.20
2018-06-10T07:27:38.570Z,57.10
2018-06-10T07:30:07.501Z,57.60
2018-06-10T07:32:36.396Z,56.90
2018-06-10T07:35:05.424Z,55.60
2018-06-10T07:37:34.400Z,51.80
2018-06-10T07:40:03.036Z,53.50
2018-06-10T07:42:31.698Z,54.00
2018-06-10T07:45:00.263Z,52.40
2018-06-10T07:47:28.816Z,55.40
2018-06-10T07:49:57.386Z,52.60
2018-06-10T07:52:25.938Z,53.60
2018-06-10T07:57:22.957Z,53.40
2018-06-10T07:59:51.775Z,51.50
2018-06-10T08:02:21.349Z,50.10
2018-06-10T08:04:50.183Z,51.30
2018-06-10T08:07:19.008Z,49.50
2018-06-10T08:09:47.831Z,49.40
2018-06-10T08:12:16.658Z,47.40
2018-06-10T08:14:45.465Z,47.30
2018-06-10T08:17:14.275Z,44.50
2018-06-10T08:19:42.836Z,45.80
2018-06-10T08:22:11.402Z,48.30
2018-06-10T08:24:39.951Z,46.20
2018-06-10T08:27:08.614Z,46.30
2018-06-10T08:29:37.415Z,44.20
2018-06-10T08:32:06.264Z,43.50
2018-06-10T08:34:35.083Z,43.20
2018-06-10T08:37:03.858Z,41.30
2018-06-10T08:39:32.628Z,41.70
2018-06-10T08:42:01.429Z,43.70
2018-06-10T08:44:29.984Z,44.80
2018-06-10T08:46:58.692Z,46.10
2018-06-10T08:49:27.531Z,44.80
2018-06-10T08:51:56.406Z,44.90
2018-06-10T08:54:25.223Z,42.70
2018-06-10T08:56:54.050Z,42.40
2018-06-10T08:59:22.955Z,45.50
2018-06-10T09:01:51.755Z,43.40
2018-06-10T09:04:20.591Z,44.20
2018-06-10T09:06:50.571Z,44.60
2018-06-10T09:09:19.498Z,43.00
2018-06-10T09:11:48.496Z,40.50
2018-06-10T09:14:17.512Z,43.60
2018-06-10T09:16:46.412Z,41.00
2018-06-10T09:19:15.082Z,42.20
2018-06-10T09:21:44.276Z,44.10
2018-06-10T09:24:12.897Z,40.00
2018-06-10T09:26:41.514Z,39.30
2018-06-10T09:29:10.394Z,38.80
2018-06-10T09:31:39.291Z,39.60
2018-06-10T09:34:08.235Z,41.10
2018-06-10T09:36:37.099Z,39.20
2018-06-10T09:39:07.919Z,38.10
2018-06-10T09:41:36.526Z,36.00
2018-06-10T09:44:05.149Z,36.90
2018-06-10T09:46:33.799Z,37.60
2018-06-10T09:49:02.359Z,36.20
2018-06-10T09:51:30.939Z,36.80
2018-06-10T09:53:59.531Z,38.90
2018-06-10T09:56:28.323Z,38.30
2018-06-10T09:58:57.299Z,36.10
2018-06-10T10:01:26.259Z,35.80
2018-06-10T10:03:55.349Z,36.30
2018-06-10T10:06:24.296Z,36.30
2018-06-10T10:08:53.737Z,35.90
2018-06-10T10:11:22.626Z,36.70
2018-06-10T10:13:51.576Z,37.90
2018-06-10T10:16:20.484Z,35.20
2018-06-10T10:18:49.211Z,32.20
2018-06-10T10:21:17.954Z,33.60
2018-06-10T10:23:46.666Z,32.60
2018-06-10T10:26:15.356Z,34.40
2018-06-10T10:28:44.806Z,34.50
2018-06-10T10:31:13.553Z,33.60
2018-06-10T10:33:42.224Z,33.80
2018-06-10T10:36:11.024Z,33.90
2018-06-10T10:38:39.925Z,33.90
2018-06-10T10:41:08.999Z,34.00
2018-06-10T10:43:37.931Z,33.80
2018-06-10T10:46:07.056Z,34.40
2018-06-10T10:48:36.299Z,33.10
2018-06-10T10:51:05.319Z,33.40
2018-06-10T10:53:35.031Z,34.70
2018-06-10T10:56:03.848Z,34.10
2018-06-10T10:58:32.507Z,32.60
2018-06-10T11:01:01.221Z,33.50
2018-06-10T11:03:29.996Z,33.00
2018-06-10T11:05:58.648Z,32.90
2018-06-10T11:08:27.235Z,32.80
2018-06-10T11:10:55.884Z,33.20
2018-06-10T11:13:24.516Z,31.50
2018-06-10T11:15:53.163Z,32.40
2018-06-10T11:18:21.789Z,33.30
2018-06-10T11:20:50.408Z,32.50
2018-06-10T11:23:19.003Z,33.40
2018-06-10T11:25:47.737Z,33.80
2018-06-10T11:28:16.678Z,34.30
2018-06-10T11:30:45.844Z,34.30
2018-06-10T11:33:14.747Z,33.50
2018-06-10T11:35:44.025Z,31.00
2018-06-10T11:38:12.603Z,31.80
2018-06-10T11:40:41.170Z,32.20
2018-06-10T11:45:38.408Z,31.90
2018-06-10T11:48:07.328Z,33.20
2018-06-10T11:50:36.259Z,34.00
2018-06-10T11:53:05.128Z,32.00
2018-06-10T11:55:33.945Z,32.00
2018-06-10T11:58:03.435Z,32.10
2018-06-10T12:00:32.362Z,32.30
2018-06-10T12:03:01.292Z,31.50
2018-06-10T12:05:30.188Z,31.30
2018-06-10T12:07:59.095Z,33.00
2018-06-10T12:10:28.052Z,32.60
2018-06-10T12:12:58.020Z,31.80
2018-06-10T12:15:27.096Z,30.70
2018-06-10T12:17:55.895Z,32.70
2018-06-10T12:20:24.772Z,30.10
2018-06-10T12:22:53.485Z,30.10
2018-06-10T12:25:22.015Z,32.10
2018-06-10T12:27:50.610Z,32.70
2018-06-10T12:30:19.232Z,31.80
2018-06-10T12:32:47.872Z,31.50
2018-06-10T12:35:16.754Z,32.80
2018-06-10T12:37:45.614Z,31.20
2018-06-10T12:40:14.554Z,30.80
2018-06-10T12:42:43.486Z,31.30
2018-06-10T12:45:12.385Z,29.90
2018-06-10T12:47:41.357Z,32.10
2018-06-10T12:50:10.218Z,30.10
2018-06-10T12:52:39.097Z,29.90
2018-06-10T12:55:07.979Z,29.50
2018-06-10T12:57:36.626Z,30.80
2018-06-10T13:00:06.264Z,30.80
2018-06-10T13:02:34.964Z,30.00
2018-06-10T13:05:03.604Z,29.10
2018-06-10T13:07:32.236Z,30.10
2018-06-10T13:10:00.839Z,31.60
2018-06-10T13:12:29.431Z,31.40
2018-06-10T13:14:58.441Z,31.80
2018-06-10T13:17:27.156Z,32.20
2018-06-10T13:19:55.914Z,33.40
2018-06-10T13:22:24.613Z,31.70
2018-06-10T13:24:53.419Z,32.20
2018-06-10T13:27:22.331Z,32.50
2018-06-10T13:29:52.304Z,31.40
2018-06-10T13:32:21.233Z,31.00
2018-06-10T13:34:50.099Z,31.30
2018-06-10T13:37:19.080Z,30.70
2018-06-10T13:39:48.084Z,31.50
2018-06-10T13:42:16.926Z,29.90
2018-06-10T13:44:45.758Z,29.40
2018-06-10T13:47:14.405Z,31.90
2018-06-10T13:49:43.051Z,30.60
2018-06-10T13:52:11.684Z,32.30
2018-06-10T13:54:40.287Z,31.20
2018-06-10T13:57:09.169Z,30.40
2018-06-10T13:59:38.027Z,28.20
2018-06-10T14:02:07.464Z,28.80
2018-06-10T14:04:36.051Z,29.60
2018-06-10T14:07:04.698Z,30.00
2018-06-10T14:09:33.349Z,29.60
2018-06-10T14:12:02.099Z,30.60
2018-06-10T14:14:30.749Z,29.50
2018-06-10T14:16:59.379Z,30.60
2018-06-10T14:19:28.339Z,30.10
2018-06-10T14:21:57.361Z,30.70
2018-06-10T14:24:27.696Z,31.90
2018-06-10T14:26:58.482Z,31.20
2018-06-10T14:29:27.183Z,31.30
2018-06-10T14:31:55.841Z,32.40
2018-06-10T14:34:24.575Z,30.80
2018-06-10T14:36:53.244Z,31.10
2018-06-10T14:39:22.664Z,30.80
2018-06-10T14:41:51.139Z,32.90
2018-06-10T14:44:20.037Z,30.20
2018-06-10T14:46:48.711Z,31.20
2018-06-10T14:49:17.602Z,31.90
2018-06-10T14:51:46.543Z,31.10
2018-06-10T14:54:15.503Z,32.10
2018-06-10T14:56:45.063Z,33.90
2018-06-10T14:59:14.014Z,32.80
2018-06-10T15:01:42.979Z,34.60
2018-06-10T15:04:11.891Z,33.60
2018-06-10T15:06:41.694Z,33.60
2018-06-10T15:09:10.632Z,33.40
2018-06-10T15:11:40.229Z,34.20
2018-06-10T15:14:09.559Z,32.70
2018-06-10T15:16:38.554Z,29.20
2018-06-10T15:19:07.419Z,29.70
2018-06-10T15:21:36.771Z,32.60
2018-06-10T15:24:06.474Z,34.40
2018-06-10T15:26:35.424Z,35.90
2018-06-10T15:29:05.508Z,34.40
2018-06-10T15:31:34.959Z,35.40
2018-06-10T15:34:04.159Z,35.40
2018-06-10T15:36:32.879Z,33.60
2018-06-10T15:39:01.571Z,33.20
2018-06-10T15:41:30.217Z,32.00
2018-06-10T15:43:58.823Z,32.60
2018-06-10T15:46:27.484Z,35.00
2018-06-10T15:48:56.111Z,35.40
2018-06-10T15:51:24.834Z,35.60
2018-06-10T15:53:53.504Z,36.10
2018-06-10T15:56:22.411Z,35.70
2018-06-10T15:58:51.187Z,36.20
2018-06-10T16:01:20.059Z,36.30
2018-06-10T16:03:49.179Z,38.20
2018-06-10T16:06:18.035Z,37.70
2018-06-10T16:08:47.324Z,38.90
2018-06-10T16:11:16.051Z,38.80
2018-06-10T16:13:44.706Z,38.60
2018-06-10T16:16:13.409Z,38.40
2018-06-10T16:18:43.583Z,38.70
2018-06-10T16:21:12.361Z,39.70
2018-06-10T16:23:41.336Z,38.60
2018-06-10T16:26:10.338Z,39.00
2018-06-10T16:28:39.394Z,38.20
2018-06-10T16:31:08.403Z,39.20
2018-06-10T16:33:41.407Z,39.00
2018-06-10T16:36:10.129Z,39.30
2018-06-10T16:38:38.774Z,40.50
2018-06-10T16:41:07.507Z,42.50
2018-06-10T16:43:36.171Z,42.10
2018-06-10T16:46:04.904Z,41.90
2018-06-10T16:48:33.549Z,41.50
2018-06-10T16:51:02.323Z,42.90
2018-06-10T16:53:30.979Z,43.20
2018-06-10T16:56:00.036Z,44.30
2018-06-10T16:58:28.681Z,44.70
2018-06-10T17:00:57.371Z,44.10
2018-06-10T17:03:26.236Z,44.00
2018-06-10T17:05:55.180Z,44.00
2018-06-10T17:08:24.082Z,45.80
2018-06-10T17:10:52.998Z,45.60
2018-06-10T17:13:21.809Z,46.10
2018-06-10T17:15:50.728Z,47.00
2018-06-10T17:18:19.554Z,47.80
2018-06-10T17:20:48.265Z,48.70
2018-06-10T17:23:16.988Z,50.20
2018-06-10T17:25:45.701Z,51.40
2018-06-10T17:28:15.021Z,52.70
2018-06-10T17:30:43.711Z,52.30
2018-06-10T17:33:12.376Z,52.50
2018-06-10T17:35:41.888Z,53.20
2018-06-10T17:38:14.071Z,52.50
2018-06-10T17:40:43.631Z,52.20
2018-06-10T17:43:12.640Z,51.60
2018-06-10T17:45:41.653Z,51.80
2018-06-10T17:48:10.630Z,51.60
2018-06-10T17:50:39.615Z,52.40
2018-06-10T17:53:08.596Z,52.50
2018-06-10T17:55:37.468Z,53.00
2018-06-10T17:58:22.278Z,55.80
2018-06-10T18:00:51.308Z,56.80
2018-06-10T18:03:20.323Z,58.60
2018-06-10T18:05:49.283Z,58.90
2018-06-10T18:08:18.328Z,58.80
2018-06-10T18:10:47.386Z,60.40
2018-06-10T18:13:17.263Z,60.80
2018-06-10T18:15:46.148Z,59.60
2018-06-10T18:18:14.939Z,60.40
2018-06-10T18:20:44.446Z,61.00
2018-06-10T18:23:13.185Z,58.70
2018-06-10T18:25:42.089Z,59.70
2018-06-10T18:28:11.211Z,60.00
2018-06-10T18:30:40.293Z,59.80
2018-06-10T18:33:10.045Z,60.30
2018-06-10T18:35:38.723Z,60.90
2018-06-10T18:38:07.483Z,62.10
2018-06-10T18:40:36.235Z,63.10
2018-06-10T18:43:04.883Z,63.60
2018-06-10T18:45:34.326Z,62.50
2018-06-10T18:48:03.404Z,61.50
2018-06-10T18:50:32.084Z,60.30
2018-06-10T18:53:00.715Z,61.70
2018-06-10T18:55:30.078Z,62.30
2018-06-10T18:57:59.023Z,63.00
2018-06-10T19:00:27.975Z,64.50
2018-06-10T19:02:57.053Z,64.80
2018-06-10T19:05:25.965Z,66.00
2018-06-10T19:07:54.589Z,67.60
2018-06-10T19:10:23.359Z,69.30
2018-06-10T19:12:52.014Z,69.90
2018-06-10T19:15:20.776Z,70.60
2018-06-10T19:17:49.723Z,71.00
2018-06-10T19:20:19.436Z,70.20
2018-06-10T19:22:49.681Z,71.30
2018-06-10T19:25:19.493Z,71.30
2018-06-10T19:27:48.189Z,71.80
2018-06-10T19:30:16.976Z,72.20
2018-06-10T19:32:45.716Z,72.20
2018-06-10T19:35:14.397Z,71.40
2018-06-10T19:37:43.556Z,71.70
2018-06-10T19:40:12.559Z,71.10
2018-06-10T19:42:41.869Z,70.10
2018-06-10T19:45:10.960Z,68.10
2018-06-10T19:47:39.976Z,66.80
2018-06-10T19:50:09.724Z,65.80
2018-06-10T19:52:38.788Z,66.10
2018-06-10T19:55:07.751Z,65.30
2018-06-10T19:57:36.736Z,65.80
2018-06-10T20:00:05.923Z,63.00
2018-06-10T20:02:34.586Z,62.30
2018-06-10T20:05:03.403Z,61.70
2018-06-10T20:07:32.176Z,62.60
2018-06-10T20:10:00.844Z,64.70
2018-06-10T20:12:30.452Z,66.10
2018-06-10T20:14:59.533Z,67.70
2018-06-10T20:17:28.364Z,70.10
2018-06-10T20:19:57.361Z,71.40
2018-06-10T20:22:26.380Z,72.40
2018-06-10T20:24:56.666Z,71.70
2018-06-10T20:27:25.733Z,73.00
2018-06-10T20:29:55.472Z,74.10
2018-06-10T20:32:24.509Z,76.10
2018-06-10T20:34:53.596Z,77.80
2018-06-10T20:37:22.598Z,78.50
2018-06-10T20:39:52.521Z,78.20
2018-06-10T20:42:21.206Z,78.20
2018-06-10T20:44:49.978Z,78.00
2018-06-10T20:47:18.711Z,77.80
2018-06-10T20:49:48.050Z,78.20
2018-06-10T20:52:17.086Z,78.30
2018-06-10T20:54:45.966Z,77.50
2018-06-10T20:57:14.884Z,77.80
2018-06-10T20:59:43.796Z,78.30
2018-06-10T21:02:13.349Z,79.00
2018-06-10T21:04:43.083Z,79.30
2018-06-10T21:07:12.767Z,79.20
2018-06-10T21:09:42.282Z,79.50
2018-06-10T21:12:11.764Z,80.00
2018-06-10T21:14:40.703Z,80.20
2018-06-10T21:17:10.900Z,81.00
2018-06-10T21:19:39.699Z,80.90
2018-06-10T21:22:08.373Z,81.00
2018-06-10T21:24:36.964Z,81.20
2018-06-10T21:27:06.265Z,81.70
2018-06-10T21:29:35.021Z,81.80
2018-06-10T21:32:49.465Z,81.60
2018-06-10T21:35:25.576Z,80.60
2018-06-10T21:37:56.291Z,80.40
2018-06-10T21:40:26.851Z,80.20
2018-06-10T21:42:55.519Z,79.30
2018-06-10T21:45:24.151Z,79.50
2018-06-10T21:47:52.824Z,80.00
2018-06-10T21:50:21.625Z,81.00
2018-06-10T21:52:50.547Z,79.20
2018-06-10T21:55:19.398Z,79.10
2018-06-10T21:57:48.377Z,79.30
2018-06-10T22:00:26.391Z,79.40
2018-06-10T22:02:55.063Z,80.10
2018-06-10T22:05:23.823Z,80.80
2018-06-10T22:07:52.471Z,81.60
2018-06-10T22:10:22.328Z,81.50
2018-06-10T22:12:51.235Z,82.20
2018-06-10T22:15:20.081Z,82.60
2018-06-10T22:17:50.041Z,82.60
2018-06-10T22:20:19.113Z,83.20
2018-06-10T22:22:48.018Z,83.30
2018-06-10T22:25:16.939Z,83.90
2018-06-10T22:27:45.847Z,84.10
2018-06-10T22:30:14.835Z,83.90
2018-06-10T22:32:43.573Z,83.80
2018-06-10T22:35:12.231Z,84.10
2018-06-10T22:37:40.797Z,84.20
2018-06-10T22:40:09.403Z,83.00
2018-06-10T22:42:37.993Z,83.20
2018-06-10T22:45:07.573Z,83.30
2018-06-10T22:47:36.183Z,83.90
2018-06-10T22:50:04.798Z,84.00
2018-06-10T22:52:35.451Z,84.30
2018-06-10T22:55:04.316Z,84.90
2018-06-10T22:57:33.263Z,85.50
2018-06-10T23:00:02.186Z,85.40
2018-06-10T23:02:30.944Z,85.70
2018-06-10T23:04:59.619Z,86.00
2018-06-10T23:07:28.298Z,86.60
2018-06-10T23:09:56.925Z,86.50
2018-06-10T23:12:25.606Z,86.70
2018-06-10T23:14:54.483Z,87.20
2018-06-10T23:17:23.414Z,88.20
2018-06-10T23:19:52.283Z,88.50
2018-06-10T23:22:21.168Z,88.90
2018-06-10T23:24:50.046Z,88.80
2018-06-10T23:27:18.907Z,89.20
2018-06-10T23:29:47.798Z,88.70
2018-06-10T23:32:17.676Z,88.30
2018-06-10T23:34:46.306Z,88.40
2018-06-10T23:37:14.958Z,89.20
2018-06-10T23:39:43.519Z,88.60
2018-06-10T23:42:12.263Z,88.60
2018-06-10T23:44:41.104Z,88.20
2018-06-10T23:47:09.975Z,88.30
2018-06-10T23:49:38.840Z,88.00
2018-06-10T23:52:07.628Z,87.80
2018-06-10T23:54:36.295Z,88.00
2018-06-10T23:57:04.896Z,87.90
2018-06-10T23:59:33.500Z,88.70
